Time;durP1;ratioP1;P1;durP2;ratioP2;P2;SDS_P1;SDS_P2;PMS_P1;PMS_P2;Temp;Humidity;BMP_temperature;BMP_pressure;BME280_temperature;BME280_humidity;BME280_pressure;Samples;Min_cycle;Max_cycle;Signal;HPM_P1;HPM_P2
2022/09/04 00:01:19;;;;;;;12.93;11.57;;;;;;;;;;5072120;28;20062;-76
2022/09/04 00:03:45;;;;;;;13.82;12.20;;;;;;;;;;5072530;28;20977;-75
2022/09/04 00:06:15;;;;;;;13.15;10.90;;;;;;;;;;5072237;28;20024;-76
2022/09/04 00:08:52;;;;;;;15.07;12.57;;;;;;;;;;5072311;28;20035;-76
2022/09/04 00:11:19;;;;;;;15.57;11.05;;;;;;;;;;5071875;28;20397;-76
2022/09/04 00:14:03;;;;;;;12.65;10.77;;;;;;;;;;5072145;28;20103;-76
2022/09/04 00:16:29;;;;;;;;;;;;;;;;;;5072433;28;20072;-76
2022/09/04 00:19:03;;;;;;;14.38;11.48;;;;;;;;;;5072018;28;20364;-76
2022/09/04 00:21:47;;;;;;;13.63;10.85;;;;;;;;;;5072355;28;20443;-76
2022/09/04 00:24:15;;;;;;;12.80;11.40;;;;;;;;;;5072048;28;20468;-75
2022/09/04 00:26:48;;;;;;;15.30;12.00;;;;;;;;;;5071925;28;20047;-76
2022/09/04 00:29:29;;;;;;;15.07;11.32;;;;;;;;;;5071937;28;20029;-76
2022/09/04 00:32:02;;;;;;;15.90;12.00;;;;;;;;;;5072191;28;20483;-76
2022/09/04 00:34:46;;;;;;;13.90;12.25;;;;;;;;;;5071794;28;20054;-76
2022/09/04 00:37:15;;;;;;;13.40;11.02;;;;;;;;;;5071647;28;20036;-76
2022/09/04 00:39:47;;;;;;;11.80;10.52;;;;;;;;;;5072169;28;20025;-76
2022/09/04 00:42:33;;;;;;;11.30;10.07;;;;;;;;;;5071912;28;20104;-76
2022/09/04 00:45:11;;;;;;;11.00;9.88;;;;;;;;;;5071740;28;20052;-76
2022/09/04 00:47:47;;;;;;;12.30;10.65;;;;;;;;;;5071687;28;20021;-76
2022/09/04 00:50:32;;;;;;;14.05;10.85;;;;;;;;;;5075284;28;20379;-76
2022/09/04 00:52:58;;;;;;;;;;;;;;;;;;5076443;28;20527;-76
2022/09/04 00:55:41;;;;;;;13.50;10.82;;;;;;;;;;5075530;28;19974;-76
2022/09/04 00:58:26;;;;;;;13.27;10.55;;;;;;;;;;5075310;28;20066;-76
2022/09/04 01:00:54;;;;;;;11.40;10.20;;;;;;;;;;5075497;28;20527;-76
2022/09/04 01:03:20;;;;;;;12.15;10.18;;;;;;;;;;5075629;28;20029;-76
2022/09/04 01:06:05;;;;;;;12.13;10.23;;;;;;;;;;5075310;28;20026;-76
2022/09/04 01:08:31;;;;;;;;;;;;;;;;;;5075829;28;20063;-76
2022/09/04 01:11:11;;;;;;;12.18;9.30;;;;;;;;;;5075685;28;19908;-76
2022/09/04 01:13:54;;;;;;;11.32;9.60;;;;;;;;;;5075359;28;20150;-76
2022/09/04 01:16:39;;;;;;;12.32;9.88;;;;;;;;;;5074763;28;20071;-76
2022/09/04 01:19:09;;;;;;;11.60;9.63;;;;;;;;;;5075191;28;20060;-76
2022/09/04 01:21:54;;;;;;;11.02;9.23;;;;;;;;;;5075358;28;20036;-76
2022/09/04 01:24:20;;;;;;;;;;;;;;;;;;5075662;28;20108;-76
2022/09/04 01:26:49;;;;;;;14.30;10.38;;;;;;;;;;5075082;28;19999;-76
2022/09/04 01:29:22;;;;;;;12.18;10.02;;;;;;;;;;5075158;28;20479;-76
2022/09/04 01:32:11;;;;;;;12.18;9.70;;;;;;;;;;5075107;28;20051;-76
2022/09/04 01:34:41;;;;;;;11.25;9.52;;;;;;;;;;5069571;28;20395;-76
2022/09/04 01:37:08;;;;;;;13.23;9.02;;;;;;;;;;5074742;28;20387;-76
2022/09/04 01:39:36;;;;;;;13.05;9.82;;;;;;;;;;5075029;28;20460;-76
2022/09/04 01:42:06;;;;;;;11.82;10.02;;;;;;;;;;5074850;28;20475;-76
2022/09/04 01:44:32;;;;;;;12.77;10.50;;;;;;;;;;5075075;28;20040;-76
2022/09/04 01:47:02;;;;;;;13.35;10.40;;;;;;;;;;5074727;28;20081;-76
2022/09/04 01:49:28;;;;;;;12.60;9.73;;;;;;;;;;5074781;28;20055;-77
2022/09/04 01:51:57;;;;;;;11.77;9.63;;;;;;;;;;5074846;28;20086;-76
2022/09/04 01:54:42;;;;;;;12.13;9.90;;;;;;;;;;5074567;28;20025;-76
2022/09/04 01:57:13;;;;;;;17.65;10.57;;;;;;;;;;5074528;28;20102;-76
2022/09/04 01:59:46;;;;;;;14.52;10.07;;;;;;;;;;5074354;28;20028;-76
2022/09/04 02:02:21;;;;;;;12.05;9.98;;;;;;;;;;5074026;28;20067;-76
2022/09/04 02:04:59;;;;;;;11.70;10.20;;;;;;;;;;5074228;28;20069;-76
2022/09/04 02:07:33;;;;;;;11.32;9.52;;;;;;;;;;5074369;28;20463;-76
2022/09/04 02:10:06;;;;;;;11.87;10.23;;;;;;;;;;5074547;28;20383;-76
2022/09/04 02:12:41;;;;;;;15.23;11.70;;;;;;;;;;5074250;28;20118;-76
2022/09/04 02:15:14;;;;;;;12.55;11.15;;;;;;;;;;5073861;28;20060;-76
2022/09/04 02:17:47;;;;;;;13.13;11.13;;;;;;;;;;5074425;28;20044;-76
2022/09/04 02:20:22;;;;;;;13.67;11.13;;;;;;;;;;5074116;28;20475;-76
2022/09/04 02:22:57;;;;;;;13.70;10.77;;;;;;;;;;5074153;28;20028;-76
2022/09/04 02:25:32;;;;;;;14.32;11.10;;;;;;;;;;5074283;28;20063;-76
2022/09/04 02:28:16;;;;;;;11.98;10.70;;;;;;;;;;5073970;28;20066;-76
2022/09/04 02:30:49;;;;;;;15.10;11.32;;;;;;;;;;5074023;28;20024;-76
2022/09/04 02:33:22;;;;;;;13.23;11.15;;;;;;;;;;5073843;28;20494;-76
2022/09/04 02:35:53;;;;;;;13.63;11.45;;;;;;;;;;5074159;28;20031;-76
2022/09/04 02:38:32;;;;;;;13.63;11.80;;;;;;;;;;5073680;28;20062;-76
2022/09/04 02:41:01;;;;;;;14.15;11.68;;;;;;;;;;5073942;28;20028;-76
2022/09/04 02:43:45;;;;;;;12.95;11.43;;;;;;;;;;5073783;28;20029;-76
2022/09/04 02:46:11;;;;;;;;;;;;;;;;;;5074442;28;20074;-76
2022/09/04 02:48:44;;;;;;;14.32;10.93;;;;;;;;;;5073720;28;19994;-76
2022/09/04 02:51:12;;;;;;;13.55;12.05;;;;;;;;;;5073754;28;20066;-76
2022/09/04 02:53:38;;;;;;;13.80;11.25;;;;;;;;;;5073375;28;20081;-76
2022/09/04 02:56:14;;;;;;;15.90;11.70;;;;;;;;;;5073428;28;20029;-76
2022/09/04 02:58:56;;;;;;;14.68;11.13;;;;;;;;;;5073391;28;20104;-76
2022/09/04 03:01:34;;;;;;;13.15;11.35;;;;;;;;;;5073435;28;20036;-76
2022/09/04 03:04:09;;;;;;;13.70;11.32;;;;;;;;;;5073507;28;20538;-76
2022/09/04 03:06:53;;;;;;;13.27;11.40;;;;;;;;;;5073342;28;20150;-76
2022/09/04 03:09:32;;;;;;;13.90;11.23;;;;;;;;;;5073345;28;20042;-76
2022/09/04 03:12:10;;;;;;;12.38;11.07;;;;;;;;;;5073072;28;20081;-76
2022/09/04 03:15:03;;;;;;;12.52;11.23;;;;;;;;;;5072667;28;20455;-77
2022/09/04 03:17:48;;;;;;;13.80;10.90;;;;;;;;;;5070847;28;20128;-76
2022/09/04 03:20:25;;;;;;;12.50;10.10;;;;;;;;;;5072826;28;20079;-76
2022/09/04 03:23:10;;;;;;;14.35;10.65;;;;;;;;;;5073081;28;20028;-76
2022/09/04 03:25:48;;;;;;;12.98;9.93;;;;;;;;;;5072841;28;20137;-76
2022/09/04 03:28:34;;;;;;;11.85;10.48;;;;;;;;;;5072998;28;20023;-76
2022/09/04 03:31:04;;;;;;;13.75;11.48;;;;;;;;;;5065886;28;20044;-76
2022/09/04 03:33:35;;;;;;;12.38;11.15;;;;;;;;;;5072767;28;20445;-76
2022/09/04 03:36:25;;;;;;;14.10;11.55;;;;;;;;;;5072770;28;20107;-76
2022/09/04 03:39:09;;;;;;;14.57;11.05;;;;;;;;;;5067041;28;20442;-76
2022/09/04 03:41:39;;;;;;;13.73;11.30;;;;;;;;;;5072364;28;20032;-76
2022/09/04 03:44:19;;;;;;;12.45;10.20;;;;;;;;;;5072610;28;20017;-76
2022/09/04 03:47:04;;;;;;;14.02;11.02;;;;;;;;;;5072536;28;20491;-76
2022/09/04 03:49:45;;;;;;;15.75;11.98;;;;;;;;;;5072587;28;20052;-77
2022/09/04 03:52:31;;;;;;;12.25;11.00;;;;;;;;;;5072243;28;20040;-76
2022/09/04 03:55:16;;;;;;;13.85;10.98;;;;;;;;;;5072265;28;20024;-76
2022/09/04 03:57:48;;;;;;;23.05;19.27;;;;;;;;;;5071628;28;20409;-76
2022/09/04 04:00:19;;;;;;;13.70;12.23;;;;;;;;;;5072552;28;20369;-76
2022/09/04 04:02:54;;;;;;;15.38;12.15;;;;;;;;;;5072342;28;20369;-76
2022/09/04 04:05:24;;;;;;;15.85;11.60;;;;;;;;;;5071998;28;20055;-76
2022/09/04 04:07:59;;;;;;;16.00;12.05;;;;;;;;;;5072395;28;20025;-75
2022/09/04 04:10:44;;;;;;;15.50;11.82;;;;;;;;;;5072129;28;20032;-76
2022/09/04 04:13:16;;;;;;;15.18;12.35;;;;;;;;;;5072246;28;20021;-76
2022/09/04 04:15:55;;;;;;;26.30;22.13;;;;;;;;;;5071865;28;20053;-76
2022/09/04 04:18:21;;;;;;;15.88;13.80;;;;;;;;;;5072127;28;20048;-76
2022/09/04 04:21:05;;;;;;;13.27;11.93;;;;;;;;;;5071921;28;20081;-76
2022/09/04 04:23:32;;;;;;;;;;;;;;;;;;5071916;28;20474;-77
2022/09/04 04:26:13;;;;;;;16.15;12.50;;;;;;;;;;5071490;28;19999;-77
2022/09/04 04:28:46;;;;;;;15.80;11.88;;;;;;;;;;5072098;28;20028;-76
2022/09/04 04:31:33;;;;;;;11.98;9.98;;;;;;;;;;5071884;28;20108;-76
2022/09/04 04:34:18;;;;;;;12.85;10.68;;;;;;;;;;5071942;28;20047;-76
2022/09/04 04:36:55;;;;;;;15.13;12.27;;;;;;;;;;5071611;28;20115;-76
2022/09/04 04:39:34;;;;;;;15.48;11.68;;;;;;;;;;5054048;28;20428;-76
2022/09/04 04:42:16;;;;;;;12.73;9.85;;;;;;;;;;5071101;28;20029;-76
2022/09/04 04:47:58;;;;;;;12.15;10.68;;;;;;;;;;5071832;28;20043;-76
2022/09/04 04:50:31;;;;;;;13.20;10.40;;;;;;;;;;5069458;28;20077;-76
2022/09/04 04:53:16;;;;;;;13.95;11.75;;;;;;;;;;5067841;28;20052;-76
2022/09/04 04:56:00;;;;;;;12.70;10.95;;;;;;;;;;5071790;28;20025;-76
2022/09/04 04:58:27;;;;;;;;;;;;;;;;;;5072156;28;20036;-76
2022/09/04 05:00:56;;;;;;;11.27;10.13;;;;;;;;;;5071687;28;19905;-77
2022/09/04 05:03:31;;;;;;;11.02;9.52;;;;;;;;;;5071803;28;20025;-76
2022/09/04 05:06:09;;;;;;;17.80;14.73;;;;;;;;;;5071402;28;20033;-76
2022/09/04 05:08:38;;;;;;;12.40;10.30;;;;;;;;;;5071553;28;20024;-76
2022/09/04 05:11:18;;;;;;;12.00;9.50;;;;;;;;;;5071595;28;20028;-76
2022/09/04 05:13:55;;;;;;;11.63;9.85;;;;;;;;;;5071249;28;20468;-76
2022/09/04 05:16:30;;;;;;;11.93;9.45;;;;;;;;;;5087659;28;20518;-76
2022/09/04 05:18:59;;;;;;;10.93;9.43;;;;;;;;;;5085434;28;20497;-76
2022/09/04 05:21:34;;;;;;;15.20;13.35;;;;;;;;;;5062631;28;20020;-77
2022/09/04 05:24:03;;;;;;;19.88;17.45;;;;;;;;;;5077481;28;20031;-77
2022/09/04 05:26:30;;;;;;;14.27;10.40;;;;;;;;;;5080410;28;20020;-76
2022/09/04 05:29:01;;;;;;;11.77;9.70;;;;;;;;;;5088059;28;20387;-76
2022/09/04 05:31:38;;;;;;;12.38;11.18;;;;;;;;;;5091690;28;20025;-76
2022/09/04 05:34:23;;;;;;;12.18;10.68;;;;;;;;;;5091465;28;20031;-77
2022/09/04 05:36:49;;;;;;;;;;;;;;;;;;5094055;28;20032;-77
2022/09/04 05:39:26;;;;;;;13.70;11.10;;;;;;;;;;5095377;28;20003;-77
2022/09/04 05:41:58;;;;;;;13.93;10.95;;;;;;;;;;5095186;28;20016;-77
2022/09/04 05:44:30;;;;;;;13.30;11.00;;;;;;;;;;5095232;28;20032;-77
2022/09/04 05:47:15;;;;;;;12.60;9.35;;;;;;;;;;5095361;28;20039;-76
2022/09/04 05:49:44;;;;;;;10.77;9.27;;;;;;;;;;5094912;28;20066;-77
2022/09/04 05:52:29;;;;;;;10.60;8.80;;;;;;;;;;5094270;28;20550;-76
2022/09/04 05:55:07;;;;;;;10.77;8.43;;;;;;;;;;5094076;28;20034;-77
2022/09/04 05:57:37;;;;;;;8.85;7.95;;;;;;;;;;5094936;28;20485;-76
2022/09/04 06:00:07;;;;;;;11.57;8.35;;;;;;;;;;5094973;28;20463;-76
2022/09/04 06:02:39;;;;;;;9.27;6.53;;;;;;;;;;5094984;28;20059;-77
2022/09/04 06:05:24;;;;;;;8.75;7.30;;;;;;;;;;5094893;28;20020;-77
2022/09/04 06:07:59;;;;;;;8.00;6.75;;;;;;;;;;5094780;28;20518;-76
2022/09/04 06:10:49;;;;;;;10.73;8.43;;;;;;;;;;5094488;28;20031;-76
2022/09/04 06:13:15;;;;;;;11.05;7.80;;;;;;;;;;5086604;28;20483;-76
2022/09/04 06:15:41;;;;;;;10.15;7.32;;;;;;;;;;5094378;28;20048;-76
2022/09/04 06:18:13;;;;;;;8.93;7.22;;;;;;;;;;5093739;28;20036;-76
2022/09/04 06:21:02;;;;;;;10.05;8.35;;;;;;;;;;5094726;28;20028;-76
2022/09/04 06:23:46;;;;;;;8.48;7.50;;;;;;;;;;5094525;28;20036;-75
2022/09/04 06:26:31;;;;;;;13.30;8.32;;;;;;;;;;5094491;28;20055;-75
2022/09/04 06:28:57;;;;;;;;;;;;;;;;;;5094690;28;20412;-78
2022/09/04 06:31:23;;;;;;;11.00;8.38;;;;;;;;;;5093647;28;19911;-75
2022/09/04 06:34:08;;;;;;;11.00;7.70;;;;;;;;;;5094308;28;20033;-76
2022/09/04 06:36:46;;;;;;;8.55;7.07;;;;;;;;;;5094369;28;20138;-79
2022/09/04 06:39:22;;;;;;;10.25;8.18;;;;;;;;;;5094055;28;20077;-76
2022/09/04 06:42:04;;;;;;;9.57;8.18;;;;;;;;;;5093747;28;20024;-76
2022/09/04 06:44:33;;;;;;;10.18;8.90;;;;;;;;;;5093819;28;20028;-77
2022/09/04 06:47:14;;;;;;;12.68;8.65;;;;;;;;;;5093722;28;20035;-76
2022/09/04 06:49:44;;;;;;;10.18;7.68;;;;;;;;;;5093821;28;20024;-76
2022/09/04 06:52:18;;;;;;;8.85;8.05;;;;;;;;;;5093976;28;20032;-76
2022/09/04 06:54:57;;;;;;;10.27;8.18;;;;;;;;;;5093315;28;20032;-76
2022/09/04 06:57:42;;;;;;;10.60;8.15;;;;;;;;;;5092965;28;20036;-77
2022/09/04 07:00:08;;;;;;;10.57;8.98;;;;;;;;;;5093614;28;20042;-76
2022/09/04 07:02:40;;;;;;;9.65;8.75;;;;;;;;;;5093917;28;20028;-76
2022/09/04 07:05:09;;;;;;;10.38;8.52;;;;;;;;;;5093881;28;20035;-77
2022/09/04 07:07:56;;;;;;;11.65;8.55;;;;;;;;;;5093598;28;20024;-76
2022/09/04 07:10:31;;;;;;;10.60;8.52;;;;;;;;;;5093250;28;20043;-77
2022/09/04 07:13:16;;;;;;;10.43;9.02;;;;;;;;;;5093475;28;20028;-77
2022/09/04 07:15:42;;;;;;;;;;;;;;;;;;5093686;28;20127;-77
2022/09/04 07:18:09;;;;;;;10.20;8.20;;;;;;;;;;5093027;28;19916;-77
2022/09/04 07:20:55;;;;;;;10.52;8.77;;;;;;;;;;5092844;28;20027;-77
2022/09/04 07:23:38;;;;;;;10.05;8.18;;;;;;;;;;5093217;28;20028;-76
2022/09/04 07:26:26;;;;;;;9.77;7.97;;;;;;;;;;5093053;28;20063;-77
2022/09/04 07:28:52;;;;;;;9.50;8.48;;;;;;;;;;5093105;28;20028;-76
2022/09/04 07:31:36;;;;;;;9.73;8.63;;;;;;;;;;5092955;28;20024;-77
2022/09/04 07:34:13;;;;;;;13.07;9.40;;;;;;;;;;5092987;28;20050;-76
2022/09/04 07:36:55;;;;;;;11.18;9.60;;;;;;;;;;5093137;28;20089;-76
2022/09/04 07:39:26;;;;;;;9.77;8.73;;;;;;;;;;5093169;28;20023;-76
2022/09/04 07:42:09;;;;;;;11.27;9.10;;;;;;;;;;5092586;28;20024;-77
2022/09/04 07:44:47;;;;;;;13.32;9.10;;;;;;;;;;5092042;28;20028;-77
2022/09/04 07:47:34;;;;;;;12.65;8.48;;;;;;;;;;5092814;28;20105;-77
2022/09/04 07:50:02;;;;;;;11.15;9.23;;;;;;;;;;5092658;28;20090;-76
2022/09/04 07:52:38;;;;;;;9.98;8.88;;;;;;;;;;5092886;28;20030;-76
2022/09/04 07:55:07;;;;;;;10.05;7.97;;;;;;;;;;5092409;28;20031;-76
2022/09/04 07:57:45;;;;;;;10.02;8.93;;;;;;;;;;5092565;28;20044;-76
2022/09/04 08:00:14;;;;;;;10.07;9.13;;;;;;;;;;5092093;28;20032;-76
2022/09/04 08:02:59;;;;;;;8.93;7.38;;;;;;;;;;5092540;28;20028;-77
2022/09/04 08:05:44;;;;;;;9.27;7.72;;;;;;;;;;5092489;28;20023;-77
2022/09/04 08:08:29;;;;;;;8.73;7.72;;;;;;;;;;5092653;28;20012;-76
2022/09/04 08:10:59;;;;;;;;;;;;;;;;;;5092833;28;20077;-76
2022/09/04 08:13:44;;;;;;;8.10;6.90;;;;;;;;;;5092453;28;19929;-76
2022/09/04 08:16:16;;;;;;;9.25;7.90;;;;;;;;;;5088663;28;20028;-76
2022/09/04 08:18:45;;;;;;;10.35;8.63;;;;;;;;;;5077279;28;20116;-76
2022/09/04 08:21:35;;;;;;;9.57;8.57;;;;;;;;;;5079192;28;20135;-76
2022/09/04 08:24:21;;;;;;;9.20;8.25;;;;;;;;;;5079312;28;20024;-76
2022/09/04 08:26:47;;;;;;;10.38;8.90;;;;;;;;;;5073454;28;20488;-76
2022/09/04 08:29:25;;;;;;;9.65;8.30;;;;;;;;;;5092061;28;20480;-77
2022/09/04 08:32:10;;;;;;;9.70;7.90;;;;;;;;;;5092190;28;20056;-77
2022/09/04 08:34:55;;;;;;;9.13;8.23;;;;;;;;;;5088815;28;20395;-77
2022/09/04 08:37:27;;;;;;;7.40;6.68;;;;;;;;;;5078865;28;20059;-76
2022/09/04 08:40:02;;;;;;;7.38;6.63;;;;;;;;;;5091914;28;20028;-76
2022/09/04 08:42:47;;;;;;;8.60;6.68;;;;;;;;;;5091953;28;20059;-77
2022/09/04 08:45:22;;;;;;;8.55;7.50;;;;;;;;;;5083975;28;20032;-77
2022/09/04 08:48:08;;;;;;;10.05;7.70;;;;;;;;;;5085990;28;20490;-76
2022/09/04 08:50:34;;;;;;;9.00;7.55;;;;;;;;;;5082729;28;20029;-76
2022/09/04 08:53:03;;;;;;;10.45;9.32;;;;;;;;;;5071488;28;20025;-76
2022/09/04 08:55:35;;;;;;;7.97;6.90;;;;;;;;;;5079536;28;20030;-77
2022/09/04 08:58:20;;;;;;;7.47;6.78;;;;;;;;;;5081786;28;20112;-76
2022/09/04 09:01:04;;;;;;;8.35;7.47;;;;;;;;;;5071471;28;20035;-77
2022/09/04 09:03:39;;;;;;;9.20;8.23;;;;;;;;;;5071382;28;20103;-76
2022/09/04 09:06:09;;;;;;;8.93;8.02;;;;;;;;;;5074009;28;20051;-76
2022/09/04 09:08:35;;;;;;;8.85;7.95;;;;;;;;;;5075772;28;20499;-76
2022/09/04 09:11:20;;;;;;;7.60;6.60;;;;;;;;;;5082949;28;20016;-77
2022/09/04 09:14:05;;;;;;;8.93;7.47;;;;;;;;;;5083075;28;20434;-76
2022/09/04 09:16:41;;;;;;;8.63;7.72;;;;;;;;;;5084348;28;20495;-76
2022/09/04 09:19:18;;;;;;;9.65;7.78;;;;;;;;;;5084565;28;20029;-77
2022/09/04 09:21:44;;;;;;;9.32;7.97;;;;;;;;;;5082856;28;20028;-76
2022/09/04 09:24:29;;;;;;;8.25;7.10;;;;;;;;;;5082490;28;20054;-76
2022/09/04 09:26:58;;;;;;;8.68;7.88;;;;;;;;;;5090159;28;20020;-76
2022/09/04 09:29:33;;;;;;;7.80;7.05;;;;;;;;;;5095333;28;20028;-76
2022/09/04 09:32:18;;;;;;;8.20;6.90;;;;;;;;;;5095267;28;20024;-76
2022/09/04 09:35:03;;;;;;;7.72;6.93;;;;;;;;;;5095417;28;20086;-76
2022/09/04 09:37:48;;;;;;;8.20;7.40;;;;;;;;;;5095092;28;20506;-77
2022/09/04 09:40:14;;;;;;;7.20;6.50;;;;;;;;;;5095175;28;20025;-76
2022/09/04 09:42:48;;;;;;;9.00;6.80;;;;;;;;;;5095152;28;20073;-76
2022/09/04 09:45:34;;;;;;;7.40;6.60;;;;;;;;;;5086981;28;20054;-77
2022/09/04 09:48:13;;;;;;;7.32;6.60;;;;;;;;;;5084585;28;20059;-77
2022/09/04 09:50:58;;;;;;;7.97;7.18;;;;;;;;;;5080502;28;20026;-76
2022/09/04 09:53:40;;;;;;;8.02;6.35;;;;;;;;;;5081988;28;20017;-76
2022/09/04 09:56:24;;;;;;;7.38;6.63;;;;;;;;;;5095099;28;20028;-77
2022/09/04 09:59:09;;;;;;;7.32;6.05;;;;;;;;;;5094979;28;20039;-76
2022/09/04 10:02:01;;;;;;;6.80;6.10;;;;;;;;;;5094939;28;20074;-76
2022/09/04 10:04:40;;;;;;;8.65;6.07;;;;;;;;;;5068741;28;20032;-76
2022/09/04 10:07:20;;;;;;;7.95;6.53;;;;;;;;;;5081857;28;20112;-77
2022/09/04 10:09:46;;;;;;;7.60;6.43;;;;;;;;;;5081823;28;20031;-77
2022/09/04 10:12:24;;;;;;;7.22;6.53;;;;;;;;;;5082258;28;20482;-76
2022/09/04 10:15:02;;;;;;;7.43;6.70;;;;;;;;;;5080879;28;20048;-77
2022/09/04 10:17:31;;;;;;;6.93;6.18;;;;;;;;;;5074295;28;20041;-76
2022/09/04 10:19:57;;;;;;;8.35;7.55;;;;;;;;;;5074015;28;20036;-77
2022/09/04 10:22:42;;;;;;;9.27;8.10;;;;;;;;;;5073552;28;20067;-77
2022/09/04 10:25:09;;;;;;;9.27;8.48;;;;;;;;;;5074266;28;20364;-76
2022/09/04 10:27:38;;;;;;;6.65;5.85;;;;;;;;;;5073965;28;20028;-77
2022/09/04 10:30:09;;;;;;;6.28;5.68;;;;;;;;;;5072557;28;20455;-77
2022/09/04 10:32:35;;;;;;;7.00;5.90;;;;;;;;;;5073860;28;20028;-76
2022/09/04 10:35:23;;;;;;;6.03;5.40;;;;;;;;;;5073782;28;20467;-76
2022/09/04 10:38:02;;;;;;;6.40;5.43;;;;;;;;;;5074131;28;20538;-78
2022/09/04 10:40:43;;;;;;;6.05;5.35;;;;;;;;;;5073662;28;20033;-77
2022/09/04 10:43:12;;;;;;;8.18;7.03;;;;;;;;;;5073624;28;20020;-75
2022/09/04 10:45:39;;;;;;;5.15;4.65;;;;;;;;;;5073970;28;20502;-77
2022/09/04 10:48:27;;;;;;;5.90;5.05;;;;;;;;;;5073702;28;20028;-77
2022/09/04 10:51:00;;;;;;;5.60;4.22;;;;;;;;;;5073443;28;20032;-77
2022/09/04 10:53:26;;;;;;;4.30;3.50;;;;;;;;;;5073793;28;20020;-79
2022/09/04 10:56:11;;;;;;;5.00;3.83;;;;;;;;;;5073451;28;20032;-77
2022/09/04 10:59:08;;;;;;;3.97;3.25;;;;;;;;;;5073324;28;20039;-76
2022/09/04 11:01:34;;;;;;;5.40;3.63;;;;;;;;;;5057001;28;20039;-77
2022/09/04 11:04:12;;;;;;;3.97;3.67;;;;;;;;;;5073211;28;20399;-75
2022/09/04 11:06:57;;;;;;;5.47;4.93;;;;;;;;;;5073417;28;20017;-76
2022/09/04 11:09:35;;;;;;;5.93;4.95;;;;;;;;;;5073312;28;20070;-76
2022/09/04 11:12:20;;;;;;;5.60;4.70;;;;;;;;;;5073015;28;20379;-77
2022/09/04 11:14:55;;;;;;;5.32;4.70;;;;;;;;;;5072977;28;20135;-76
2022/09/04 11:17:30;;;;;;;5.28;4.80;;;;;;;;;;5072684;28;20476;-76
2022/09/04 11:20:00;;;;;;;6.38;5.75;;;;;;;;;;5073091;28;20104;-77
2022/09/04 11:22:26;;;;;;;4.50;4.10;;;;;;;;;;5072883;28;20029;-76
2022/09/04 11:25:03;;;;;;;5.53;4.00;;;;;;;;;;5072853;28;20028;-77
2022/09/04 11:27:35;;;;;;;4.93;4.28;;;;;;;;;;5072842;28;20099;-76
2022/09/04 11:30:18;;;;;;;5.07;4.57;;;;;;;;;;5072525;28;20044;-77
2022/09/04 11:33:03;;;;;;;5.72;5.05;;;;;;;;;;5072249;28;20468;-77
2022/09/04 11:35:48;;;;;;;6.88;5.20;;;;;;;;;;5072344;28;20033;-76
2022/09/04 11:38:38;;;;;;;5.55;4.40;;;;;;;;;;5072429;28;20381;-76
2022/09/04 11:41:23;;;;;;;6.28;4.53;;;;;;;;;;5072454;28;20400;-77
2022/09/04 11:43:49;;;;;;;6.30;4.55;;;;;;;;;;5072238;28;20391;-77
2022/09/04 11:46:46;;;;;;;4.75;4.35;;;;;;;;;;5072310;28;20031;-77
2022/09/04 11:49:12;;;;;;;4.85;4.05;;;;;;;;;;5063758;28;20475;-77
2022/09/04 11:51:44;;;;;;;4.40;3.55;;;;;;;;;;5072347;28;20052;-77
2022/09/04 11:54:29;;;;;;;4.45;3.80;;;;;;;;;;5072325;28;20086;-77
2022/09/04 11:57:12;;;;;;;4.00;3.60;;;;;;;;;;5071929;28;20036;-77
2022/09/04 11:59:41;;;;;;;3.97;3.58;;;;;;;;;;5071856;28;20099;-77
2022/09/04 12:02:23;;;;;;;4.82;3.38;;;;;;;;;;5072523;28;20025;-76
2022/09/04 12:05:06;;;;;;;9.80;8.75;;;;;;;;;;5072485;28;20394;-76
2022/09/04 12:07:44;;;;;;;6.68;6.05;;;;;;;;;;5072133;28;20032;-76
2022/09/04 12:10:23;;;;;;;5.22;4.45;;;;;;;;;;5072067;28;20025;-76
2022/09/04 12:13:09;;;;;;;5.03;4.05;;;;;;;;;;5072116;28;20420;-77
2022/09/04 12:15:54;;;;;;;4.43;3.70;;;;;;;;;;5071877;28;20044;-76
2022/09/04 12:18:40;;;;;;;4.47;3.53;;;;;;;;;;5071934;28;20480;-76
2022/09/04 12:21:16;;;;;;;5.35;3.42;;;;;;;;;;5072156;28;20036;-77
2022/09/04 12:24:01;;;;;;;4.47;3.85;;;;;;;;;;5072106;28;20029;-76
2022/09/04 12:26:27;;;;;;;3.45;3.15;;;;;;;;;;5071958;28;20025;-77
2022/09/04 12:29:12;;;;;;;4.95;4.10;;;;;;;;;;5071991;28;20031;-77
2022/09/04 12:31:56;;;;;;;6.70;6.10;;;;;;;;;;5071739;28;20025;-76
2022/09/04 12:34:25;;;;;;;5.00;3.40;;;;;;;;;;5071508;28;20032;-75
2022/09/04 12:36:58;;;;;;;4.68;3.35;;;;;;;;;;5073184;28;20037;-76
2022/09/04 12:39:47;;;;;;;4.07;3.30;;;;;;;;;;5071418;28;20043;-77
2022/09/04 12:42:32;;;;;;;7.63;5.50;;;;;;;;;;5071582;28;20024;-77
2022/09/04 12:45:17;;;;;;;5.43;4.00;;;;;;;;;;5072907;28;20051;-78
2022/09/04 12:47:44;;;;;;;5.97;5.38;;;;;;;;;;5075703;28;20081;-76
2022/09/04 12:50:29;;;;;;;4.60;3.88;;;;;;;;;;5076047;28;20479;-76
2022/09/04 12:53:18;;;;;;;3.45;3.10;;;;;;;;;;5075971;28;20077;-76
2022/09/04 12:56:04;;;;;;;3.55;3.25;;;;;;;;;;5076062;28;20028;-78
2022/09/04 12:58:51;;;;;;;4.38;3.67;;;;;;;;;;5075902;28;20479;-77
2022/09/04 13:01:36;;;;;;;4.03;3.60;;;;;;;;;;5076058;28;20063;-78
2022/09/04 13:04:07;;;;;;;3.42;3.13;;;;;;;;;;5076012;28;20020;-78
2022/09/04 13:06:52;;;;;;;3.55;3.25;;;;;;;;;;5075970;28;20029;-78
2022/09/04 13:09:18;;;;;;;3.75;3.38;;;;;;;;;;5075803;28;20029;-78
2022/09/04 13:12:08;;;;;;;4.97;3.95;;;;;;;;;;5075495;28;20027;-77
2022/09/04 13:14:36;;;;;;;3.80;3.40;;;;;;;;;;5075023;28;20463;-77
2022/09/04 13:17:22;;;;;;;3.63;3.17;;;;;;;;;;5075664;28;20029;-77
2022/09/04 13:19:54;;;;;;;3.13;2.63;;;;;;;;;;5075685;28;20086;-78
2022/09/04 13:22:20;;;;;;;4.43;3.05;;;;;;;;;;5075463;28;20141;-78
2022/09/04 13:24:58;;;;;;;3.13;2.72;;;;;;;;;;5075536;28;20021;-78
2022/09/04 13:27:48;;;;;;;2.95;2.45;;;;;;;;;;5075319;28;20028;-78
2022/09/04 13:30:20;;;;;;;3.25;2.67;;;;;;;;;;5075502;28;20029;-78
2022/09/04 13:32:51;;;;;;;4.15;3.17;;;;;;;;;;5075344;28;20104;-76
2022/09/04 13:35:17;;;;;;;4.10;2.53;;;;;;;;;;5075403;28;20445;-78
2022/09/04 13:37:50;;;;;;;2.97;2.55;;;;;;;;;;5075140;28;20040;-76
2022/09/04 13:40:16;;;;;;;2.72;2.22;;;;;;;;;;5075355;28;20418;-78
2022/09/04 13:42:50;;;;;;;2.70;2.50;;;;;;;;;;5075053;28;20021;-77
2022/09/04 13:45:24;;;;;;;2.78;2.50;;;;;;;;;;5075328;28;20082;-76
2022/09/04 13:47:53;;;;;;;3.42;2.90;;;;;;;;;;5075226;28;20029;-77
2022/09/04 13:50:22;;;;;;;3.88;3.08;;;;;;;;;;5074965;28;20025;-77
2022/09/04 13:53:02;;;;;;;3.63;2.90;;;;;;;;;;5075032;28;20084;-79
2022/09/04 13:55:37;;;;;;;3.67;3.17;;;;;;;;;;5074432;28;20029;-77
2022/09/04 13:58:03;;;;;;;4.28;3.10;;;;;;;;;;5073985;28;20040;-78
2022/09/04 14:00:32;;;;;;;4.97;4.50;;;;;;;;;;5074672;28;20103;-79
2022/09/04 14:03:02;;;;;;;3.80;2.85;;;;;;;;;;5074793;28;20029;-77
2022/09/04 14:05:30;;;;;;;4.38;2.80;;;;;;;;;;5074902;28;20103;-78
2022/09/04 14:08:05;;;;;;;2.70;2.38;;;;;;;;;;5075021;28;20031;-77
2022/09/04 14:10:31;;;;;;;4.45;2.72;;;;;;;;;;5074800;28;20028;-78
2022/09/04 14:13:32;;;;;;;3.03;2.35;;;;;;;;;;5074694;28;20150;-77
2022/09/04 14:16:02;;;;;;;3.20;2.78;;;;;;;;;;5005976;28;20605;-78
2022/09/04 14:18:31;;;;;;;2.90;2.60;;;;;;;;;;5080158;28;20060;-77
2022/09/04 14:21:11;;;;;;;2.53;2.05;;;;;;;;;;5094776;28;20024;-78
2022/09/04 14:23:55;;;;;;;3.25;2.45;;;;;;;;;;5094649;28;20024;-77
2022/09/04 14:26:23;;;;;;;2.58;2.38;;;;;;;;;;5094579;28;20031;-78
2022/09/04 14:29:07;;;;;;;2.75;2.40;;;;;;;;;;5094724;28;20028;-77
2022/09/04 14:31:51;;;;;;;2.60;2.10;;;;;;;;;;5094532;28;20471;-77
2022/09/04 14:34:37;;;;;;;3.55;2.50;;;;;;;;;;5094373;28;20020;-77
2022/09/04 14:37:26;;;;;;;2.13;1.80;;;;;;;;;;5094376;28;20044;-77
2022/09/04 14:39:56;;;;;;;2.53;2.22;;;;;;;;;;5086622;28;20044;-77
2022/09/04 14:42:41;;;;;;;3.20;2.35;;;;;;;;;;5094343;28;20115;-77
2022/09/04 14:45:29;;;;;;;3.15;2.42;;;;;;;;;;5094347;28;20023;-79
2022/09/04 14:47:58;;;;;;;4.68;3.03;;;;;;;;;;5094080;28;20034;-78
2022/09/04 14:50:27;;;;;;;8.32;2.95;;;;;;;;;;5093915;28;20467;-78
2022/09/04 14:53:16;;;;;;;2.90;2.58;;;;;;;;;;5094097;28;20027;-77
2022/09/04 14:56:01;;;;;;;3.53;2.40;;;;;;;;;;5093835;28;20040;-77
2022/09/04 14:58:34;;;;;;;2.80;2.17;;;;;;;;;;5094020;28;20064;-76
2022/09/04 15:01:03;;;;;;;2.13;1.92;;;;;;;;;;5093859;28;20108;-78
2022/09/04 15:03:33;;;;;;;2.75;2.08;;;;;;;;;;5093887;28;20031;-78
2022/09/04 15:06:04;;;;;;;2.92;2.35;;;;;;;;;;5093560;28;20103;-78
2022/09/04 15:08:34;;;;;;;2.20;2.00;;;;;;;;;;5093718;28;20031;-77
2022/09/04 15:11:04;;;;;;;2.42;1.90;;;;;;;;;;5093901;28;20138;-76
2022/09/04 15:13:48;;;;;;;3.55;2.30;;;;;;;;;;5093567;28;20058;-78
2022/09/04 15:16:21;;;;;;;3.10;2.40;;;;;;;;;;5093525;28;20410;-77
2022/09/04 15:18:50;;;;;;;3.10;2.13;;;;;;;;;;5093665;28;20044;-77
2022/09/04 15:21:27;;;;;;;2.03;1.60;;;;;;;;;;5093299;28;20089;-78
2022/09/04 15:24:11;;;;;;;2.60;1.65;;;;;;;;;;5093422;28;20024;-78
2022/09/04 15:26:56;;;;;;;2.33;1.67;;;;;;;;;;5093402;28;20028;-77
2022/09/04 15:29:27;;;;;;;1.90;1.63;;;;;;;;;;5093497;28;20090;-77
2022/09/04 15:32:12;;;;;;;3.33;1.88;;;;;;;;;;5093340;28;20028;-76
2022/09/04 15:34:38;;;;;;;3.05;1.67;;;;;;;;;;5093203;28;20382;-78